MET'MAP v2.0
soon released !

Expected late october,
this new version will be
more efficient, smarter,
and hosted on a brand new
server x3 powerfull...
...and still free !


Not compatible ?
Try the mobile version !

LOG IN : | Subscribe | Disclaimer | Who is Orbifly ? |
ICAO code :

TAF - LFOR Chartres Champhol - 19 Feb 2020 19:53 UTC
Data Sources :     NOAA   


- Airport Elevation : 509 ft
- IATA code : QTJ
- No reported NOTAMs.


LFOR - Chartres Champhol

Latest METAR recorded : 0000/00/00 G :19 TAF ETNG 191700Z 1918/2009 22008KT 9999 SCT035 TEMPO 1919/1921 -RA BECMG 1921/1923 7000 -RADZ BKN025 BECMG 1923/2001 21010G17KT TEMPO 1923/2003 BKN014 BECMG 1905/1907 9999 NSW SCT020 BKN050
NO TAF


MET'MAP, your aeronautical weather chart ! - Copyright ORBIFLY December 2007

Programming & Development : Alexandra Zaïnal
Co-Developer : Marc-Olivier Méhu
Technical & hardware support : Manuel Goepfert
Concept & Financing : Baudouin d'Aumeries